Terminal Aerodrome Forecast
Issued by NWS

Home | Current Version | Previous Version | Text Only | Print | Product List | Glossary On
Versions: 1 2 3 4 5 6 7 8 9 10 11 12 13 14 15 16 17 18 19 20
000
FTUS45 KPSR 262337
TAFIWA
TAF
KIWA 262337Z 2700/2724 30008KT P6SM SCT100 SCT220
     FM270600 13008KT P6SM BKN200
     FM271800 28006KT P6SM BKN250
      AMD LTD TO CLD VIS AND WIND 2703/2713=

USA.gov is the U.S. government's official web portal to all federal, state and local government web resources and services.